Capt. Frank Banta Jr — WDH6399 — position and weather

sailwx.info

Track history (hours):
 
Tides and Currents Weather Stations Pressure Air Temp Water Temp Dewpoint Dewpoint Depression Visibility Wind Speed Wind Dir Waves Ship Positions

Capt. Frank Banta Jr

Owner: Chem Carriers Towing, LLC, Sunshine, LA. More information available from US FCC via Universal Licensing System and Coast Guard Vessel Documentation Center.

Last reported at 2017-Sep-14 18:27 UTC. Time now 2017-Sep-19 13:44 UTC.
Position N 29°33' W 090°27'.

Length 27 m.

Type: Tug. MMSI: 367637540.

Date/timePositionNaut miles runAvg speedWind from/ knotsBaromVisibWave heightAir tempDewpointWater temp
2017-Sep-14 18:27N 29°33' W 090°27'2 4.2
2017-Sep-14 18:00N 29°34' W 090°29'2 4.6
2017-Sep-14 17:30N 29°34' W 090°32'2 4.8
2017-Sep-14 17:00N 29°34' W 090°34'2 4.3
2017-Sep-14 16:30N 29°35' W 090°37'2 4.9
2017-Sep-14 16:00N 29°36' W 090°39'2 4.5
2017-Sep-14 15:30N 29°37' W 090°42'2 3.5
2017-Sep-14 15:00N 29°35' W 090°43'2 3.7
2017-Sep-14 14:30N 29°34' W 090°44'2 3.9
2017-Sep-14 14:00N 29°32' W 090°46'2 4.2
2017-Sep-14 13:30N 29°32' W 090°48'3 5.2
2017-Sep-14 13:00N 29°32' W 090°51'3 5.1
2017-Sep-14 12:25N 29°33' W 090°54'2 5.5
2017-Sep-14 12:00N 29°34' W 090°57'57 3.8
2017-Sep-13 21:03N 29°50' W 091°60'0 5.3
2017-Sep-13 21:00N 29°50' W 092°00'2 5.0
2017-Sep-13 20:30N 29°49' W 092°03'2 4.9
2017-Sep-13 20:00N 29°48' W 092°05'2 4.7
2017-Sep-13 19:30N 29°47' W 092°08'2 4.9
2017-Sep-13 19:00N 29°47' W 092°11'2 4.7
2017-Sep-13 18:30N 29°47' W 092°13'1 3.0
2017-Sep-13 18:00N 29°48' W 092°15'1 3.0
2017-Sep-13 17:30N 29°49' W 092°16'3 4.9
2017-Sep-13 16:51N 29°50' W 092°19'34 4.6
2017-Sep-13 09:32N 29°56' W 092°58'1 4.2
2017-Sep-13 09:14N 29°56' W 092°60'1 4.2
2017-Sep-13 08:55N 29°56' W 093°01'2 4.1
2017-Sep-13 08:29N 29°56' W 093°03'2 4.0
2017-Sep-13 08:00N 29°56' W 093°05'2 3.6
2017-Sep-13 07:30N 29°56' W 093°08'2 3.9
2017-Sep-13 07:00N 29°56' W 093°10'2 4.1
2017-Sep-13 06:30N 29°58' W 093°11'2 4.0
2017-Sep-13 06:00N 29°59' W 093°13'2 3.6
2017-Sep-13 05:30N 30°01' W 093°14'1 2.5
2017-Sep-13 05:00N 30°02' W 093°15'1 2.2
2017-Sep-13 04:30N 30°03' W 093°16'2 3.7
2017-Sep-13 04:00N 30°04' W 093°16'2 3.4
2017-Sep-13 03:30N 30°05' W 093°18'1 2.3
2017-Sep-13 03:00N 30°06' W 093°19'2 4.0
2017-Sep-13 02:30N 30°04' W 093°20'2 3.8
2017-Sep-13 02:00N 30°04' W 093°22'3 5.2
2017-Sep-13 01:30N 30°04' W 093°25'3 5.6
2017-Sep-13 01:00N 30°04' W 093°29'3 5.5
2017-Sep-13 00:30N 30°04' W 093°32'3 5.4
2017-Sep-13 00:00N 30°04' W 093°35'3 5.1
2017-Sep-12 23:30N 30°04' W 093°38'2 4.9
2017-Sep-12 23:00N 30°04' W 093°41'  
2017-Sep-06 07:08N 29°58' W 093°52'  
Track history (hours):
 
Tides and Currents Weather Stations Pressure Air Temp Water Temp Dewpoint Dewpoint Depression Visibility Wind Speed Wind Dir Waves Ship Positions

Capt. Frank Banta Jr

Owner: Chem Carriers Towing, LLC, Sunshine, LA. More information available from US FCC via Universal Licensing System and Coast Guard Vessel Documentation Center.

Last reported at 2017-Sep-14 18:27 UTC. Time now 2017-Sep-19 13:44 UTC.
Position N 29°33' W 090°27'.

Length 27 m.

Type: Tug. MMSI: 367637540.

Date/timePositionNaut miles runAvg speedWind from/ knotsBaromVisibWave heightAir tempDewpointWater temp
2017-Sep-14 18:27N 29°33' W 090°27'2 4.2
2017-Sep-14 18:00N 29°34' W 090°29'2 4.6
2017-Sep-14 17:30N 29°34' W 090°32'2 4.8
2017-Sep-14 17:00N 29°34' W 090°34'2 4.3
2017-Sep-14 16:30N 29°35' W 090°37'2 4.9
2017-Sep-14 16:00N 29°36' W 090°39'2 4.5
2017-Sep-14 15:30N 29°37' W 090°42'2 3.5
2017-Sep-14 15:00N 29°35' W 090°43'2 3.7
2017-Sep-14 14:30N 29°34' W 090°44'2 3.9
2017-Sep-14 14:00N 29°32' W 090°46'2 4.2
2017-Sep-14 13:30N 29°32' W 090°48'3 5.2
2017-Sep-14 13:00N 29°32' W 090°51'3 5.1
2017-Sep-14 12:25N 29°33' W 090°54'2 5.5
2017-Sep-14 12:00N 29°34' W 090°57'57 3.8
2017-Sep-13 21:03N 29°50' W 091°60'0 5.3
2017-Sep-13 21:00N 29°50' W 092°00'2 5.0
2017-Sep-13 20:30N 29°49' W 092°03'2 4.9
2017-Sep-13 20:00N 29°48' W 092°05'2 4.7
2017-Sep-13 19:30N 29°47' W 092°08'2 4.9
2017-Sep-13 19:00N 29°47' W 092°11'2 4.7
2017-Sep-13 18:30N 29°47' W 092°13'1 3.0
2017-Sep-13 18:00N 29°48' W 092°15'1 3.0
2017-Sep-13 17:30N 29°49' W 092°16'3 4.9
2017-Sep-13 16:51N 29°50' W 092°19'34 4.6
2017-Sep-13 09:32N 29°56' W 092°58'1 4.2
2017-Sep-13 09:14N 29°56' W 092°60'1 4.2
2017-Sep-13 08:55N 29°56' W 093°01'2 4.1
2017-Sep-13 08:29N 29°56' W 093°03'2 4.0
2017-Sep-13 08:00N 29°56' W 093°05'2 3.6
2017-Sep-13 07:30N 29°56' W 093°08'2 3.9
2017-Sep-13 07:00N 29°56' W 093°10'2 4.1
2017-Sep-13 06:30N 29°58' W 093°11'2 4.0
2017-Sep-13 06:00N 29°59' W 093°13'2 3.6
2017-Sep-13 05:30N 30°01' W 093°14'1 2.5
2017-Sep-13 05:00N 30°02' W 093°15'1 2.2
2017-Sep-13 04:30N 30°03' W 093°16'2 3.7
2017-Sep-13 04:00N 30°04' W 093°16'2 3.4
2017-Sep-13 03:30N 30°05' W 093°18'1 2.3
2017-Sep-13 03:00N 30°06' W 093°19'2 4.0
2017-Sep-13 02:30N 30°04' W 093°20'2 3.8
2017-Sep-13 02:00N 30°04' W 093°22'3 5.2
2017-Sep-13 01:30N 30°04' W 093°25'3 5.6
2017-Sep-13 01:00N 30°04' W 093°29'3 5.5
2017-Sep-13 00:30N 30°04' W 093°32'3 5.4
2017-Sep-13 00:00N 30°04' W 093°35'3 5.1
2017-Sep-12 23:30N 30°04' W 093°38'2 4.9
2017-Sep-12 23:00N 30°04' W 093°41'  
2017-Sep-06 07:08N 29°58' W 093°52'  

Dump ship's entire track history